Time;durP1;ratioP1;P1;durP2;ratioP2;P2;SDS_P1;SDS_P2;PMS_P1;PMS_P2;Temp;Humidity;BMP_temperature;BMP_pressure;BME280_temperature;BME280_humidity;BME280_pressure;Samples;Min_cycle;Max_cycle;Signal;HPM_P1;HPM_P2
2022/12/29 00:01:01;;;;;;;3.97;2.50;;;;;;;10.81;100.00;99944.13;5092845;28;20123;-51
2022/12/29 00:03:29;;;;;;;6.45;2.60;;;;;;;10.96;100.00;99938.47;5088131;28;20064;-51
2022/12/29 00:05:58;;;;;;;5.95;2.63;;;;;;;10.99;100.00;99918.00;5086433;28;20119;-49
2022/12/29 00:08:41;;;;;;;7.05;2.30;;;;;;;10.92;100.00;99921.13;5094924;28;20052;-51
2022/12/29 00:11:17;;;;;;;4.28;2.58;;;;;;;11.03;100.00;99911.69;5095025;28;20048;-51
2022/12/29 00:16:32;;;;;;;6.50;2.30;;;;;;;10.93;100.00;99920.00;5094632;28;20044;-53
2022/12/29 00:19:01;;;;;;;6.35;2.50;;;;;;;11.10;100.00;99911.31;5093756;28;20093;-52
2022/12/29 00:36:05;;;;;;;6.20;1.98;;;;;;;10.64;100.00;99904.56;5079593;28;20611;-51
2022/12/29 00:44:10;;;;;;;2.17;1.30;;;;;;;10.54;100.00;99899.22;5090922;28;20032;-51
2022/12/29 00:46:40;;;;;;;2.13;1.23;;;;;;;10.49;100.00;99901.22;5086090;28;20041;-51
2022/12/29 00:52:23;;;;;;;4.50;1.67;;;;;;;10.48;100.00;99886.75;5092181;28;20402;-48
2022/12/29 00:54:51;;;;;;;3.58;1.92;;;;;;;10.51;100.00;99886.19;5090008;28;20178;-50
2022/12/29 00:57:18;;;;;;;3.58;1.80;;;;;;;10.60;100.00;99875.47;5091850;28;20044;-50
2022/12/29 00:59:46;;;;;;;1.95;1.17;;;;;;;10.69;100.00;99873.72;5093093;28;20444;-50
2022/12/29 01:02:16;;;;;;;2.22;1.42;;;;;;;10.82;100.00;99874.91;5092431;28;20402;-53
2022/12/29 01:04:47;;;;;;;4.85;1.70;;;;;;;10.85;100.00;99871.59;5078942;28;20064;-49
2022/12/29 01:07:16;;;;;;;2.65;1.65;;;;;;;10.83;100.00;99865.63;5090895;28;20433;-51
2022/12/29 01:12:41;;;;;;;3.83;1.77;;;;;;;10.87;100.00;99874.81;5093137;28;20098;-51
2022/12/29 01:15:14;;;;;;;2.97;1.77;;;;;;;10.88;100.00;99860.13;5074196;28;20040;-51
2022/12/29 01:17:42;;;;;;;3.63;1.95;;;;;;;11.02;100.00;99860.19;5056961;28;20124;-49
2022/12/29 01:20:11;;;;;;;3.25;1.70;;;;;;;11.23;100.00;99857.97;5092219;28;20046;-51
2022/12/29 01:22:38;;;;;;;2.67;1.52;;;;;;;11.23;100.00;99844.31;5091324;28;20074;-51
2022/12/29 01:25:07;;;;;;;2.75;1.80;;;;;;;11.27;100.00;99845.38;5091819;28;20039;-51
2022/12/29 01:27:35;;;;;;;2.97;1.67;;;;;;;11.14;100.00;99846.13;5091267;28;20453;-48
2022/12/29 01:30:02;;;;;;;1.85;1.58;;;;;;;11.17;100.00;99851.78;5090483;28;20486;-50
2022/12/29 01:32:32;;;;;;;1.58;1.45;;;;;;;11.19;100.00;99854.22;5093175;28;20040;-51
2022/12/29 01:34:59;;;;;;;4.45;1.95;;;;;;;11.13;100.00;99849.94;5091869;28;20044;-52
2022/12/29 01:37:27;;;;;;;2.88;1.60;;;;;;;11.11;100.00;99843.97;5062055;28;20055;-51
2022/12/29 01:39:55;;;;;;;3.60;1.70;;;;;;;11.16;100.00;99827.53;5057605;28;20056;-49
2022/12/29 01:42:24;;;;;;;2.08;1.52;;;;;;;11.26;100.00;99816.50;5093280;28;20051;-51
2022/12/29 01:44:55;;;;;;;2.65;1.70;;;;;;;11.09;100.00;99822.47;5091643;28;20063;-51
2022/12/29 01:47:34;;;;;;;3.42;1.45;;;;;;;11.25;100.00;99823.03;5091622;28;20123;-52
2022/12/29 01:50:09;;;;;;;2.10;1.67;;;;;;;11.25;100.00;99812.13;5074462;28;20043;-51
2022/12/29 01:52:41;;;;;;;4.13;1.38;;;;;;;11.34;100.00;99812.28;5091847;28;20390;-53
2022/12/29 01:55:10;;;;;;;3.08;1.70;;;;;;;11.42;100.00;99817.84;5091035;28;20036;-51
2022/12/29 01:57:41;;;;;;;3.22;1.42;;;;;;;11.69;100.00;99816.31;5088533;28;20550;-51
2022/12/29 02:00:11;;;;;;;2.22;1.50;;;;;;;11.65;100.00;99818.00;5079023;28;20375;-52
2022/12/29 02:02:53;;;;;;;2.15;1.20;;;;;;;11.80;100.00;99825.91;5095665;28;20044;-52
2022/12/29 02:05:36;;;;;;;1.50;1.40;;;;;;;11.72;100.00;99826.63;5080909;28;20048;-50
2022/12/29 02:08:03;;;;;;;4.13;1.58;;;;;;;11.50;100.00;99819.09;5090157;28;20040;-51
2022/12/29 02:10:35;;;;;;;2.13;1.30;;;;;;;11.25;100.00;99814.84;5078133;28;20119;-51
2022/12/29 02:13:03;;;;;;;1.70;1.40;;;;;;;11.25;100.00;99820.31;5078197;28;20044;-52
2022/12/29 02:15:46;;;;;;;2.25;1.33;;;;;;;11.28;100.00;99819.69;5111867;28;20063;-49
2022/12/29 02:18:25;;;;;;;6.70;1.60;;;;;;;11.05;100.00;99819.53;5074399;28;20043;-54
2022/12/29 02:21:03;;;;;;;2.13;1.42;;;;;;;11.10;100.00;99826.81;5112277;28;20115;-49
2022/12/29 02:23:43;;;;;;;2.67;1.63;;;;;;;11.48;100.00;99824.84;5092281;28;20486;-53
2022/12/29 02:26:27;;;;;;;1.85;1.10;;;;;;;11.34;100.00;99817.72;5090857;28;20044;-48
2022/12/29 02:29:13;;;;;;;3.00;1.60;;;;;;;11.34;100.00;99823.97;5076792;28;20074;-48
2022/12/29 02:32:07;;;;;;;2.42;1.08;;;;;;;11.08;100.00;99835.28;5094021;28;20520;-50
2022/12/29 02:35:02;;;;;;;1.55;1.08;;;;;;;11.02;100.00;99811.13;5101189;28;20062;-50
2022/12/29 02:37:35;;;;;;;1.97;1.10;;;;;;;11.67;100.00;99800.22;5094045;28;20494;-51
2022/12/29 02:40:38;;;;;;;5.85;1.98;;;;;;;11.58;100.00;99801.22;5095806;28;20047;-50
2022/12/29 02:43:14;;;;;;;2.50;1.08;;;;;;;11.51;100.00;99805.13;5075032;28;20047;-48
2022/12/29 02:45:54;;;;;;;3.55;1.45;;;;;;;11.35;100.00;99809.22;5092308;28;20044;-51
2022/12/29 02:48:30;;;;;;;2.45;1.13;;;;;;;11.25;100.00;99820.31;5095929;28;20040;-51
2022/12/29 02:51:25;;;;;;;1.70;1.23;;;;;;;11.36;100.00;99812.78;5090868;28;20045;-53
2022/12/29 02:56:40;;;;;;;3.22;1.33;;;;;;;11.05;100.00;99816.78;5090234;28;20428;-53
2022/12/29 02:59:09;;;;;;;1.85;1.15;;;;;;;11.02;100.00;99835.66;5078611;28;20123;-51
2022/12/29 03:02:16;;;;;;;5.20;1.70;;;;;;;11.21;100.00;99817.38;5111373;28;20048;-53
2022/12/29 03:05:17;;;;;;;3.53;1.38;;;;;;;11.21;100.00;99819.31;5090466;28;20524;-52
2022/12/29 03:08:09;;;;;;;1.27;1.02;;;;;;;11.04;100.00;99808.91;5067115;28;20056;-51
2022/12/29 03:12:07;;;;;;;2.40;1.33;;;;;;;11.07;100.00;99811.06;5095390;28;20078;-50
2022/12/29 03:17:12;;;;;;;2.42;1.25;;;;;;;11.04;100.00;99806.19;5094454;28;20078;-49
2022/12/29 03:19:46;;;;;;;3.72;1.60;;;;;;;11.05;100.00;99810.53;5078176;28;20037;-50
2022/12/29 03:22:30;;;;;;;3.08;1.40;;;;;;;11.03;100.00;99802.66;5048525;28;20158;-48
2022/12/29 03:25:15;;;;;;;1.83;1.20;;;;;;;11.28;100.00;99808.78;5071828;28;20040;-52
2022/12/29 03:27:49;;;;;;;2.53;1.20;;;;;;;11.16;100.00;99816.63;5088688;28;20040;-53
2022/12/29 03:30:18;;;;;;;2.00;1.17;;;;;;;11.09;100.00;99812.38;5069378;28;20394;-55
2022/12/29 03:32:54;;;;;;;3.28;1.25;;;;;;;11.22;100.00;99810.00;5072131;28;20047;-50
2022/12/29 03:35:27;;;;;;;2.38;1.58;;;;;;;11.26;100.00;99808.31;5089610;28;20056;-49
2022/12/29 03:38:15;;;;;;;2.15;1.30;;;;;;;11.26;100.00;99805.59;5072079;28;20052;-51
2022/12/29 03:40:48;;;;;;;3.67;1.25;;;;;;;11.34;100.00;99795.91;5093681;28;20445;-50
2022/12/29 03:43:16;;;;;;;2.85;1.38;;;;;;;11.11;100.00;99800.34;5059343;28;20048;-52
2022/12/29 03:45:46;;;;;;;1.23;1.02;;;;;;;11.17;100.00;99804.63;5057010;28;20539;-52
2022/12/29 03:48:13;;;;;;;2.17;1.40;;;;;;;11.20;100.00;99795.84;5093671;28;20521;-52
2022/12/29 03:50:45;;;;;;;2.70;1.23;;;;;;;11.12;100.00;99799.25;5093526;28;20563;-51
2022/12/29 03:53:12;;;;;;;4.07;1.40;;;;;;;11.03;100.00;99801.84;5110377;28;20036;-53
2022/12/29 03:55:42;;;;;;;1.73;1.02;;;;;;;11.07;100.00;99803.69;5092786;28;20059;-49
2022/12/29 03:58:11;;;;;;;3.35;1.30;;;;;;;11.17;100.00;99801.91;5092756;28;20036;-51
2022/12/29 04:00:55;;;;;;;2.95;1.38;;;;;;;11.00;100.00;99795.06;5076415;28;20148;-51
2022/12/29 04:03:23;;;;;;;3.78;1.40;;;;;;;10.91;100.00;99796.84;5079828;28;20033;-51
2022/12/29 04:05:51;;;;;;;1.65;1.33;;;;;;;10.99;100.00;99807.09;5091543;28;20085;-50
2022/12/29 04:08:19;;;;;;;5.00;1.77;;;;;;;11.02;100.00;99805.69;5093414;28;20052;-53
2022/12/29 04:10:51;;;;;;;3.58;1.35;;;;;;;10.92;100.00;99798.47;5110135;28;20142;-50
2022/12/29 04:13:22;;;;;;;4.80;1.50;;;;;;;10.78;100.00;99811.22;5093219;28;20032;-49
2022/12/29 04:15:52;;;;;;;2.35;1.30;;;;;;;10.68;100.00;99820.34;5092323;28;20044;-50
2022/12/29 04:18:19;;;;;;;4.43;1.40;;;;;;;10.65;100.00;99821.75;5088430;28;20186;-51
2022/12/29 04:20:59;;;;;;;4.95;1.60;;;;;;;10.70;100.00;99820.84;5089768;28;21243;-50
2022/12/29 04:23:28;;;;;;;3.10;1.42;;;;;;;10.69;100.00;99805.59;5093108;28;20056;-50
2022/12/29 04:25:57;;;;;;;1.95;1.23;;;;;;;10.85;100.00;99811.66;5076414;28;20036;-52
2022/12/29 04:28:26;;;;;;;4.93;1.45;;;;;;;10.77;100.00;99812.31;5109017;28;20048;-51
2022/12/29 04:31:14;;;;;;;3.30;1.50;;;;;;;10.82;100.00;99817.69;5081460;28;20048;-50
2022/12/29 04:33:43;;;;;;;5.95;1.70;;;;;;;10.84;100.00;99818.19;5081495;28;20044;-51
2022/12/29 04:36:12;;;;;;;2.05;1.00;;;;;;;10.77;100.00;99821.28;5107331;28;20040;-51
2022/12/29 04:38:39;;;;;;;3.78;1.63;;;;;;;10.67;100.00;99815.97;5091357;28;20060;-50
2022/12/29 04:41:10;;;;;;;3.63;1.50;;;;;;;10.88;100.00;99811.06;5092775;28;20036;-50
2022/12/29 04:43:39;;;;;;;3.42;1.00;;;;;;;10.75;100.00;99820.78;5093034;28;20066;-49
2022/12/29 04:46:25;;;;;;;3.45;1.60;;;;;;;10.66;100.00;99826.06;5094264;28;20043;-51
2022/12/29 04:49:00;;;;;;;4.85;1.88;;;;;;;10.66;100.00;99828.78;5091326;28;20036;-54
2022/12/29 04:51:45;;;;;;;5.50;1.63;;;;;;;10.75;100.00;99815.34;5109531;28;20442;-52
2022/12/29 04:54:15;;;;;;;6.65;2.08;;;;;;;10.63;100.00;99821.22;5092925;28;20040;-53
2022/12/29 04:56:47;;;;;;;5.07;2.00;;;;;;;10.59;100.00;99819.38;5090813;28;20036;-51
2022/12/29 04:59:16;;;;;;;6.18;1.98;;;;;;;10.70;100.00;99820.84;5100118;28;20073;-50
2022/12/29 05:01:47;;;;;;;7.40;1.77;;;;;;;10.60;100.00;99832.69;5092307;28;20059;-51
2022/12/29 05:04:15;;;;;;;8.05;1.95;;;;;;;10.85;100.00;99838.91;5109337;28;20048;-53
2022/12/29 05:06:43;;;;;;;5.50;1.73;;;;;;;10.85;100.00;99855.25;5075713;28;20036;-53
2022/12/29 05:09:11;;;;;;;8.57;2.20;;;;;;;10.58;100.00;99850.41;5090852;28;20089;-51
2022/12/29 05:11:39;;;;;;;4.95;2.08;;;;;;;10.45;100.00;99846.50;5090928;28;20482;-51
2022/12/29 05:14:09;;;;;;;6.30;1.70;;;;;;;10.40;100.00;99860.19;5091489;28;20044;-49
2022/12/29 05:16:37;;;;;;;6.72;2.20;;;;;;;10.43;100.00;99860.41;5091469;28;20050;-51
2022/12/29 05:19:05;;;;;;;6.38;2.08;;;;;;;10.36;100.00;99859.13;5090576;28;20101;-49
2022/12/29 05:21:34;;;;;;;7.30;2.28;;;;;;;10.30;100.00;99868.47;5091914;28;20036;-51
2022/12/29 05:24:02;;;;;;;3.83;1.60;;;;;;;10.33;100.00;99870.59;5060789;28;20066;-47
2022/12/29 05:26:30;;;;;;;6.30;2.05;;;;;;;10.35;100.00;99871.13;5091136;28;20498;-48
2022/12/29 05:29:11;;;;;;;7.45;2.55;;;;;;;10.31;100.00;99872.81;5074637;28;20444;-49
2022/12/29 05:31:39;;;;;;;5.43;1.85;;;;;;;10.32;100.00;99890.75;5090044;28;20078;-48
2022/12/29 05:34:09;;;;;;;6.38;2.08;;;;;;;10.40;100.00;99888.22;5108350;28;20432;-49
2022/12/29 05:36:36;;;;;;;6.53;1.85;;;;;;;10.32;100.00;99890.75;5092772;28;20036;-50
2022/12/29 05:39:07;;;;;;;6.03;2.10;;;;;;;10.24;100.00;99892.16;5091880;28;20059;-51
2022/12/29 05:41:36;;;;;;;6.45;2.17;;;;;;;10.47;100.00;99895.25;5089894;28;20135;-51
2022/12/29 05:44:32;;;;;;;7.03;2.33;;;;;;;10.56;100.00;99897.03;5078583;28;20418;-51
2022/12/29 05:47:23;;;;;;;10.35;2.85;;;;;;;10.51;100.00;99894.38;5092268;28;20040;-53
2022/12/29 05:50:11;;;;;;;6.25;2.13;;;;;;;10.45;100.00;99895.53;5081203;28;20044;-50
2022/12/29 05:53:02;;;;;;;3.38;1.40;;;;;;;10.47;100.00;99887.06;5083261;28;20046;-52
2022/12/29 05:55:30;;;;;;;7.30;1.92;;;;;;;10.62;100.00;99898.56;5058607;28;20130;-51
2022/12/29 05:57:58;;;;;;;8.70;2.33;;;;;;;10.69;100.00;99911.03;5084820;28;20047;-50
2022/12/29 06:00:26;;;;;;;6.80;2.30;;;;;;;10.78;100.00;99909.31;5070078;28;20445;-53
2022/12/29 06:02:53;;;;;;;6.88;2.22;;;;;;;10.63;100.00;99911.13;5106472;28;20445;-51
2022/12/29 06:05:22;;;;;;;9.55;2.60;;;;;;;10.37;100.00;99915.22;5090035;28;20047;-50
2022/12/29 06:07:50;;;;;;;6.78;2.28;;;;;;;10.19;100.00;99920.25;5092325;28;20403;-51
2022/12/29 06:10:18;;;;;;;9.05;2.40;;;;;;;10.15;100.00;99927.41;5090670;28;20051;-50
2022/12/29 06:12:55;;;;;;;3.20;1.58;;;;;;;10.16;100.00;99909.94;5065360;28;20089;-52
2022/12/29 06:15:23;;;;;;;4.57;1.77;;;;;;;10.35;100.00;99909.25;5091935;28;20127;-50
2022/12/29 06:17:51;;;;;;;5.57;1.73;;;;;;;10.49;100.00;99912.91;5068831;28;20511;-53
2022/12/29 06:20:19;;;;;;;7.38;2.35;;;;;;;10.44;100.00;99900.16;5083080;28;20044;-50
2022/12/29 06:22:47;;;;;;;4.65;1.85;;;;;;;10.44;100.00;99904.81;5098697;28;20119;-51
2022/12/29 06:25:16;;;;;;;8.05;2.33;;;;;;;10.40;100.00;99904.56;5074719;28;20041;-51
2022/12/29 06:27:44;;;;;;;6.20;1.73;;;;;;;10.46;100.00;99910.75;5091411;28;20028;-53
2022/12/29 06:30:13;;;;;;;5.80;2.20;;;;;;;10.87;100.00;99907.53;5091139;28;20070;-55
2022/12/29 06:32:41;;;;;;;4.43;1.40;;;;;;;10.82;100.00;99908.44;5092186;28;20044;-53
2022/12/29 06:35:11;;;;;;;5.20;2.03;;;;;;;10.77;100.00;99902.22;5107349;28;20555;-51
2022/12/29 06:37:46;;;;;;;5.28;2.17;;;;;;;10.63;100.00;99902.94;4384885;28;10000338;-51
2022/12/29 06:40:14;;;;;;;5.22;2.03;;;;;;;10.62;100.00;99898.56;5062347;28;20037;-50
2022/12/29 06:43:05;;;;;;;7.40;2.50;;;;;;;11.06;100.00;99904.81;5051923;28;20051;-50
2022/12/29 06:46:00;;;;;;;8.13;2.10;;;;;;;10.75;100.00;99897.06;5091309;28;20098;-51
2022/12/29 06:48:28;;;;;;;6.88;2.20;;;;;;;10.66;100.00;99902.34;5091398;28;20052;-51
2022/12/29 06:50:55;;;;;;;5.30;2.00;;;;;;;10.70;100.00;99893.59;5091104;28;20054;-50
2022/12/29 06:53:23;;;;;;;9.52;2.53;;;;;;;10.58;100.00;99916.63;5092004;28;20032;-52
2022/12/29 06:55:51;;;;;;;7.20;2.20;;;;;;;10.45;100.00;99907.22;5092266;28;20039;-57
2022/12/29 06:58:18;;;;;;;8.88;2.78;;;;;;;10.49;100.00;99902.03;5078148;28;20049;-51
2022/12/29 07:00:46;;;;;;;7.75;2.47;;;;;;;10.40;100.00;99920.09;5090224;28;20039;-49
2022/12/29 07:03:14;;;;;;;8.30;2.70;;;;;;;10.23;100.00;99910.41;5092438;28;20040;-52
2022/12/29 07:05:41;;;;;;;7.13;2.20;;;;;;;10.15;100.00;99908.34;5092059;28;20044;-51
2022/12/29 07:08:09;;;;;;;8.35;2.35;;;;;;;10.12;100.00;99903.44;5093056;28;20059;-51
2022/12/29 07:10:37;;;;;;;8.05;2.30;;;;;;;10.09;100.00;99917.66;5091450;28;20036;-49
2022/12/29 07:13:04;;;;;;;8.65;2.60;;;;;;;10.19;100.00;99914.00;5091794;28;20050;-51
2022/12/29 07:15:32;;;;;;;4.05;1.85;;;;;;;10.33;100.00;99920.44;5092266;28;20114;-51
2022/12/29 07:18:00;;;;;;;8.05;2.60;;;;;;;10.39;100.00;99918.44;5092200;28;20043;-51
2022/12/29 07:20:27;;;;;;;11.05;2.55;;;;;;;10.47;100.00;99931.44;5088815;28;20154;-51
2022/12/29 07:22:55;;;;;;;2.55;1.45;;;;;;;10.59;100.00;99926.41;5090993;28;20055;-51
2022/12/29 07:25:23;;;;;;;9.45;2.33;;;;;;;10.71;100.00;99919.75;5093103;28;20040;-54
2022/12/29 07:27:51;;;;;;;10.57;3.15;;;;;;;10.75;100.00;99926.22;5094300;28;20047;-51
2022/12/29 07:30:19;;;;;;;7.50;2.33;;;;;;;10.63;100.00;99953.88;5093189;28;20044;-51
2022/12/29 07:32:46;;;;;;;6.35;2.13;;;;;;;10.50;99.12;99952.66;5091053;28;20058;-50
2022/12/29 07:35:14;;;;;;;8.90;2.05;;;;;;;10.55;100.00;99960.75;5095017;28;20050;-52
2022/12/29 07:37:41;;;;;;;10.10;2.53;;;;;;;10.93;100.00;99960.06;5093075;28;20040;-51
2022/12/29 07:40:10;;;;;;;10.73;3.30;;;;;;;10.90;100.00;99986.00;5094932;28;20048;-50
2022/12/29 07:42:38;;;;;;;15.00;3.25;;;;;;;10.95;100.00;99980.47;5092040;28;20044;-51
2022/12/29 07:45:09;;;;;;;18.00;4.53;;;;;;;10.92;100.00;99975.63;5077840;28;20082;-51
2022/12/29 07:47:50;;;;;;;14.45;4.32;;;;;;;10.98;100.00;99979.91;5089548;28;20036;-50
2022/12/29 07:50:17;;;;;;;9.20;3.17;;;;;;;10.78;99.08;99969.25;5076689;28;20559;-50
2022/12/29 07:52:46;;;;;;;8.07;2.83;;;;;;;10.58;97.06;99973.00;5093391;28;20048;-51
2022/12/29 07:55:17;;;;;;;11.70;3.47;;;;;;;10.67;100.00;99984.88;5092792;28;20051;-51
2022/12/29 07:57:45;;;;;;;10.10;3.05;;;;;;;10.45;95.01;99980.75;5085298;28;20043;-51
2022/12/29 08:00:13;;;;;;;12.90;3.22;;;;;;;10.40;96.92;99988.16;5099775;28;20071;-51
2022/12/29 08:02:41;;;;;;;15.18;4.40;;;;;;;10.48;100.00;99982.09;5083448;28;20032;-51
2022/12/29 08:05:08;;;;;;;12.68;3.40;;;;;;;10.48;96.22;99987.53;5092687;28;20107;-53
2022/12/29 08:07:36;;;;;;;9.80;3.05;;;;;;;10.56;99.43;99984.19;5076285;28;20071;-53
2022/12/29 08:10:04;;;;;;;12.13;3.53;;;;;;;10.64;98.50;99989.00;5093259;28;20044;-52
2022/12/29 08:12:32;;;;;;;10.93;3.45;;;;;;;10.45;95.45;100004.44;5091769;28;20044;-52
2022/12/29 08:15:00;;;;;;;12.32;3.40;;;;;;;10.36;94.93;99996.09;5086467;28;20085;-51
2022/12/29 08:17:27;;;;;;;11.75;3.42;;;;;;;10.21;95.90;100007.91;5093156;28;20415;-52
2022/12/29 08:19:55;;;;;;;13.13;3.55;;;;;;;10.14;96.77;100014.78;5093853;28;20044;-50
2022/12/29 08:22:23;;;;;;;12.25;3.58;;;;;;;10.11;97.76;100009.91;5091501;28;20059;-54
2022/12/29 08:24:54;;;;;;;14.80;3.28;;;;;;;10.09;98.41;100015.63;5088484;28;20105;-52
2022/12/29 08:27:22;;;;;;;11.40;3.33;;;;;;;10.09;98.90;100018.34;5091546;28;20051;-52
2022/12/29 08:29:49;;;;;;;13.93;3.30;;;;;;;10.07;98.11;100015.09;5093598;28;20048;-55
2022/12/29 08:32:17;;;;;;;13.50;3.75;;;;;;;10.18;99.84;100000.31;5093546;28;20047;-50
2022/12/29 08:34:45;;;;;;;15.25;4.82;;;;;;;10.45;100.00;99999.81;5093637;28;20055;-50
2022/12/29 08:37:12;;;;;;;14.73;3.25;;;;;;;10.45;99.13;100007.19;5093443;28;20044;-51
2022/12/29 08:39:40;;;;;;;13.73;3.78;;;;;;;10.64;100.00;100004.53;5093548;28;20050;-53
2022/12/29 08:42:08;;;;;;;13.38;3.30;;;;;;;10.59;97.87;99999.97;5093613;28;20043;-51
2022/12/29 08:44:35;;;;;;;12.25;3.10;;;;;;;10.54;95.32;100008.19;5092234;28;20055;-50
2022/12/29 08:47:03;;;;;;;12.55;3.28;;;;;;;10.50;99.28;100007.13;5093633;28;20051;-51
2022/12/29 08:49:31;;;;;;;12.63;3.63;;;;;;;10.63;100.00;100006.47;5092824;28;20486;-51
2022/12/29 08:51:59;;;;;;;15.18;4.28;;;;;;;10.90;100.00;99999.63;5093185;28;20032;-52
2022/12/29 08:54:26;;;;;;;12.27;3.28;;;;;;;10.83;98.41;99996.44;5093107;28;20043;-51
2022/12/29 08:56:55;;;;;;;14.18;3.92;;;;;;;11.00;100.00;99999.50;5091206;28;20044;-55
2022/12/29 08:59:29;;;;;;;12.00;3.53;;;;;;;10.86;100.00;99996.66;5089465;28;20040;-52
2022/12/29 09:01:56;;;;;;;14.95;4.35;;;;;;;11.03;100.00;100003.56;5063977;28;20119;-53
2022/12/29 09:04:25;;;;;;;21.05;4.40;;;;;;;11.09;100.00;99997.75;5092493;28;20536;-52
2022/12/29 09:06:53;;;;;;;11.30;3.25;;;;;;;11.22;96.33;100001.69;5092093;28;20044;-54
2022/12/29 09:09:21;;;;;;;13.38;3.55;;;;;;;10.93;93.87;99999.03;5091398;28;20048;-54
2022/12/29 09:11:49;;;;;;;12.63;3.47;;;;;;;11.11;100.00;99996.63;5092652;28;20678;-52
2022/12/29 09:14:16;;;;;;;18.13;4.05;;;;;;;11.01;100.00;99992.13;5093123;28;20418;-54
2022/12/29 09:19:31;;;;;;;15.60;3.95;;;;;;;11.32;98.50;100008.09;5095583;28;20048;-52
2022/12/29 09:21:59;;;;;;;15.02;3.67;;;;;;;11.35;96.94;100004.78;5094160;28;20085;-50
2022/12/29 09:24:26;;;;;;;9.63;3.20;;;;;;;11.12;92.94;100010.00;5093117;28;20079;-52
2022/12/29 09:26:54;;;;;;;15.07;4.20;;;;;;;11.14;100.00;100026.88;5092811;28;20048;-51
2022/12/29 09:29:21;;;;;;;13.48;3.83;;;;;;;11.07;96.96;100037.31;5093082;28;20044;-54
2022/12/29 09:31:49;;;;;;;14.02;3.85;;;;;;;11.56;100.00;100013.50;5093351;28;20111;-53
2022/12/29 09:34:17;;;;;;;12.70;3.78;;;;;;;11.54;100.00;100023.91;5092741;28;20123;-55
2022/12/29 09:36:44;;;;;;;14.48;3.38;;;;;;;11.40;98.09;100032.81;5093037;28;20044;-50
2022/12/29 09:39:13;;;;;;;8.70;2.90;;;;;;;11.30;93.61;100035.66;5092598;28;20394;-53
2022/12/29 09:41:59;;;;;;;12.35;3.45;;;;;;;11.06;96.25;100041.97;5093011;28;20131;-49
2022/12/29 09:44:32;;;;;;;14.80;3.58;;;;;;;11.26;98.46;100056.47;5092552;28;20513;-53
2022/12/29 09:47:00;;;;;;;12.18;3.17;;;;;;;11.14;99.08;100045.16;5092995;28;20066;-48
2022/12/29 09:49:49;;;;;;;10.52;3.05;;;;;;;11.16;98.06;100064.72;5091048;28;20044;-53
2022/12/29 09:52:47;;;;;;;9.25;3.13;;;;;;;11.20;96.99;100063.88;5092800;28;20109;-54
2022/12/29 09:55:21;;;;;;;10.88;3.55;;;;;;;11.15;100.00;100065.84;5088787;28;20060;-50
2022/12/29 09:57:59;;;;;;;7.15;2.88;;;;;;;10.97;100.00;100086.50;5084891;28;20040;-52
2022/12/29 10:01:02;;;;;;;10.27;3.03;;;;;;;10.93;100.00;100086.25;5091339;28;20044;-55
2022/12/29 10:03:48;;;;;;;14.05;3.08;;;;;;;10.86;100.00;100085.78;5092118;28;20051;-50
2022/12/29 10:06:45;;;;;;;8.13;2.92;;;;;;;11.01;100.00;100082.88;5091490;28;20048;-52
2022/12/29 10:09:55;;;;;;;12.52;3.50;;;;;;;10.86;100.00;100085.78;5090955;28;20056;-54
2022/12/29 10:12:36;;;;;;;7.72;2.80;;;;;;;10.96;100.00;100079.41;5092203;28;20462;-52
2022/12/29 10:15:20;;;;;;;9.18;2.90;;;;;;;11.02;100.00;100105.53;5074508;28;20093;-53
2022/12/29 10:18:35;;;;;;;11.25;2.80;;;;;;;10.79;100.00;100112.56;5080270;28;20061;-52
2022/12/29 10:21:40;;;;;;;8.00;2.97;;;;;;;10.57;100.00;100124.72;5068761;28;20036;-54
2022/12/29 10:24:11;;;;;;;11.07;3.20;;;;;;;10.34;100.00;100111.84;5091519;28;20503;-52
2022/12/29 10:26:43;;;;;;;8.98;2.80;;;;;;;10.60;100.00;100128.78;5096548;28;20042;-54
2022/12/29 10:29:20;;;;;;;5.85;2.50;;;;;;;10.43;100.00;100131.94;5096312;28;20083;-52
2022/12/29 10:31:55;;;;;;;9.90;3.20;;;;;;;10.65;100.00;100140.47;5096477;28;20058;-53
2022/12/29 10:34:45;;;;;;;8.50;2.72;;;;;;;10.65;100.00;100148.66;5096328;28;20147;-52
2022/12/29 10:37:22;;;;;;;8.00;2.50;;;;;;;10.43;100.00;100165.41;5094872;28;20032;-50
2022/12/29 10:39:55;;;;;;;11.43;3.30;;;;;;;10.31;100.00;100172.31;5081969;28;20056;-53
2022/12/29 10:42:28;;;;;;;10.95;3.30;;;;;;;10.29;100.00;100169.06;5096365;28;20050;-52
2022/12/29 10:44:57;;;;;;;8.35;3.05;;;;;;;10.43;100.00;100161.88;5075044;28;20064;-51
2022/12/29 10:47:29;;;;;;;11.95;3.33;;;;;;;10.34;100.00;100171.75;5083424;28;20048;-53
2022/12/29 10:50:00;;;;;;;12.40;3.47;;;;;;;10.35;100.00;100174.19;5106562;28;20379;-51
2022/12/29 10:52:29;;;;;;;9.15;3.00;;;;;;;10.30;100.00;100170.69;5087884;28;20044;-51
2022/12/29 10:55:01;;;;;;;9.88;3.13;;;;;;;10.30;100.00;100174.22;5077794;28;20093;-52
2022/12/29 10:57:44;;;;;;;6.95;2.63;;;;;;;10.27;100.00;100184.81;5088994;28;20071;-51
2022/12/29 11:00:17;;;;;;;12.38;3.60;;;;;;;10.19;100.00;100186.25;5106301;28;20070;-52
2022/12/29 11:02:54;;;;;;;12.75;3.45;;;;;;;10.23;100.00;100188.13;5094228;28;20047;-50
2022/12/29 11:05:54;;;;;;;11.00;3.33;;;;;;;10.22;100.00;100191.94;5095634;28;20036;-53
2022/12/29 11:08:26;;;;;;;12.73;2.78;;;;;;;10.20;100.00;100198.78;5061624;28;20456;-52
2022/12/29 11:11:00;;;;;;;10.35;2.70;;;;;;;10.37;100.00;100207.41;5095645;28;20046;-49
2022/12/29 11:13:31;;;;;;;11.73;2.90;;;;;;;10.35;100.00;100216.94;5095079;28;20040;-52
2022/12/29 11:16:06;;;;;;;10.32;3.50;;;;;;;10.33;100.00;100210.97;5094260;28;20062;-53
2022/12/29 11:18:39;;;;;;;13.00;4.07;;;;;;;10.55;100.00;100208.63;5077358;28;20052;-52
2022/12/29 11:21:26;;;;;;;10.30;3.22;;;;;;;10.54;100.00;100208.94;5095170;28;20534;-52
2022/12/29 11:24:26;;;;;;;11.82;2.97;;;;;;;10.36;100.00;100216.66;5094237;28;20156;-50
2022/12/29 11:27:15;;;;;;;10.00;3.47;;;;;;;10.49;100.00;100211.69;5094980;28;20051;-52
2022/12/29 11:29:43;;;;;;;9.70;3.17;;;;;;;10.78;100.00;100214.50;5094468;28;20036;-51
2022/12/29 11:32:26;;;;;;;12.32;3.45;;;;;;;10.52;100.00;100216.56;5093951;28;20387;-51
2022/12/29 11:35:00;;;;;;;13.85;3.13;;;;;;;10.52;100.00;100217.38;5095043;28;20048;-53
2022/12/29 11:37:39;;;;;;;9.55;3.05;;;;;;;10.52;100.00;100233.72;5093761;28;20052;-53
2022/12/29 11:40:16;;;;;;;11.02;3.13;;;;;;;10.44;100.00;100237.06;5092755;28;20032;-51
2022/12/29 11:42:56;;;;;;;10.30;3.05;;;;;;;10.46;100.00;100240.28;5094174;28;20040;-52
2022/12/29 11:45:26;;;;;;;10.45;3.20;;;;;;;10.42;100.00;100245.50;5094964;28;20032;-51
2022/12/29 11:47:57;;;;;;;12.63;3.28;;;;;;;10.45;100.00;100233.22;5095005;28;20052;-52
2022/12/29 11:50:29;;;;;;;11.13;2.92;;;;;;;10.47;100.00;100239.22;5093652;28;20403;-53
2022/12/29 11:53:05;;;;;;;10.77;3.00;;;;;;;10.40;100.00;100241.44;5093412;28;20036;-54
2022/12/29 11:55:33;;;;;;;11.85;3.30;;;;;;;10.35;100.00;100241.47;5093342;28;20032;-52
2022/12/29 11:58:03;;;;;;;13.60;3.40;;;;;;;10.24;100.00;100252.34;5083647;28;20072;-51
2022/12/29 12:00:34;;;;;;;11.90;3.35;;;;;;;10.32;100.00;100255.63;5091853;28;20044;-52
2022/12/29 12:03:19;;;;;;;8.02;2.70;;;;;;;10.39;100.00;100256.13;5064306;28;20506;-53
2022/12/29 12:06:00;;;;;;;12.45;3.63;;;;;;;10.38;100.00;100249.88;5092470;28;20449;-51
2022/12/29 12:08:54;;;;;;;8.38;3.00;;;;;;;10.46;100.00;100256.63;5094531;28;20052;-54
2022/12/29 12:11:28;;;;;;;13.75;3.72;;;;;;;10.30;100.00;100255.09;5075151;28;20105;-53
2022/12/29 12:14:06;;;;;;;12.57;3.55;;;;;;;10.24;100.00;100246.09;5092807;28;20563;-52
2022/12/29 12:17:17;;;;;;;12.93;3.78;;;;;;;10.36;100.00;100259.41;5093222;28;20036;-55
2022/12/29 12:20:07;;;;;;;14.45;3.75;;;;;;;10.43;100.00;100262.66;5092709;28;20483;-51
2022/12/29 12:22:39;;;;;;;12.57;4.10;;;;;;;10.50;100.00;100263.16;5095309;28;20047;-52
2022/12/29 12:25:23;;;;;;;14.70;3.72;;;;;;;10.42;100.00;100266.47;5094282;28;20104;-52
2022/12/29 12:28:00;;;;;;;11.00;3.38;;;;;;;10.47;100.00;100268.38;5093028;28;20387;-52
2022/12/29 12:30:34;;;;;;;12.25;3.65;;;;;;;10.40;100.00;100260.50;5109872;28;20051;-52